Time;durP1;ratioP1;P1;durP2;ratioP2;P2;SDS_P1;SDS_P2;PMS_P1;PMS_P2;Temp;Humidity;BMP_temperature;BMP_pressure;BME280_temperature;BME280_humidity;BME280_pressure;Samples;Min_cycle;Max_cycle;Signal;HPM_P1;HPM_P2
2024/04/05 00:01:22;;;;;;;14.40;3.90;;;13.20;99.90;;;;;;5051599;28;20060;-74
2024/04/05 00:03:47;;;;;;;16.10;4.30;;;13.20;99.90;;;;;;5068227;28;20044;-75
2024/04/05 00:06:13;;;;;;;16.52;4.13;;;13.30;99.90;;;;;;5067952;28;20020;-75
2024/04/05 00:08:39;;;;;;;16.92;5.55;;;13.20;99.90;;;;;;5068218;28;20060;-75
2024/04/05 00:11:04;;;;;;;24.20;5.57;;;13.20;99.90;;;;;;5034810;28;20340;-75
2024/04/05 00:13:30;;;;;;;19.85;5.40;;;13.20;99.90;;;;;;5067958;28;20028;-75
2024/04/05 00:15:56;;;;;;;11.07;4.07;;;13.20;99.90;;;;;;5034790;28;20032;-74
2024/04/05 00:18:22;;;;;;;10.60;3.35;;;13.20;99.90;;;;;;5050789;28;20025;-74
2024/04/05 00:20:48;;;;;;;14.02;2.67;;;13.20;99.90;;;;;;5067644;28;20052;-75
2024/04/05 00:23:14;;;;;;;9.70;2.90;;;13.20;99.90;;;;;;5067712;28;20044;-75
2024/04/05 00:25:43;;;;;;;8.63;3.13;;;13.20;99.90;;;;;;5051203;28;20171;-74
2024/04/05 00:28:08;;;;;;;9.88;3.47;;;13.20;99.90;;;;;;5067742;28;20025;-75
2024/04/05 00:30:34;;;;;;;8.82;2.72;;;13.20;99.90;;;;;;5068748;28;20291;-74
2024/04/05 00:33:00;;;;;;;7.20;2.58;;;13.20;99.90;;;;;;5034345;28;20017;-74
2024/04/05 00:35:26;;;;;;;6.15;2.00;;;13.20;99.90;;;;;;5067416;28;20070;-75
2024/04/05 00:37:52;;;;;;;5.95;2.35;;;13.20;99.90;;;;;;5050961;28;20029;-75
2024/04/05 00:40:17;;;;;;;8.55;2.60;;;13.20;99.90;;;;;;5067429;28;20021;-75
2024/04/05 00:42:43;;;;;;;10.32;2.60;;;13.20;99.90;;;;;;5050824;28;20084;-75
2024/04/05 00:45:09;;;;;;;11.05;3.08;;;13.20;99.90;;;;;;5050788;28;20021;-74
2024/04/05 00:47:35;;;;;;;13.35;2.88;;;13.20;99.90;;;;;;5050671;28;20024;-74
2024/04/05 00:50:05;;;;;;;5.65;1.73;;;13.20;99.90;;;;;;5067087;28;20055;-74
2024/04/05 00:52:31;;;;;;;8.88;2.53;;;13.20;99.90;;;;;;5067144;28;20036;-75
2024/04/05 00:54:57;;;;;;;8.52;2.25;;;13.20;99.90;;;;;;5034157;28;20297;-75
2024/04/05 00:57:23;;;;;;;4.90;1.77;;;13.20;99.90;;;;;;5050613;28;20058;-74
2024/04/05 00:59:49;;;;;;;11.05;2.70;;;13.20;99.90;;;;;;5067217;28;20021;-74
2024/04/05 01:02:15;;;;;;;11.55;2.75;;;13.20;99.90;;;;;;5050469;28;20028;-74
2024/04/05 01:04:41;;;;;;;12.50;2.63;;;13.20;99.90;;;;;;5033770;28;20040;-74
2024/04/05 01:07:06;;;;;;;10.55;2.88;;;13.20;99.90;;;;;;5050333;28;20031;-75
2024/04/05 01:09:33;;;;;;;6.35;1.85;;;13.30;99.90;;;;;;5066319;28;20049;-74
2024/04/05 01:11:58;;;;;;;7.72;2.33;;;13.20;99.90;;;;;;5050304;28;20186;-74
2024/04/05 01:14:24;;;;;;;11.60;2.70;;;13.20;99.90;;;;;;5033560;28;20036;-74
2024/04/05 01:16:51;;;;;;;3.05;1.30;;;13.20;99.90;;;;;;5050194;28;20021;-74
2024/04/05 01:19:16;;;;;;;4.35;1.58;;;13.20;99.90;;;;;;5050217;28;20225;-74
2024/04/05 01:21:45;;;;;;;3.72;1.17;;;13.20;99.90;;;;;;5049720;28;20108;-74
2024/04/05 01:24:11;;;;;;;4.75;1.20;;;13.20;99.90;;;;;;5033731;28;20028;-74
2024/04/05 01:26:36;;;;;;;3.97;1.05;;;13.20;99.90;;;;;;5050061;28;20092;-74
2024/04/05 01:29:02;;;;;;;1.73;1.00;;;13.20;99.90;;;;;;5050014;28;20067;-74
2024/04/05 01:31:27;;;;;;;2.00;0.95;;;13.20;99.90;;;;;;5049929;28;20071;-74
2024/04/05 01:33:54;;;;;;;4.07;0.90;;;13.20;99.90;;;;;;5049888;28;20071;-75
2024/04/05 01:36:19;;;;;;;1.17;0.80;;;13.20;99.90;;;;;;5049676;28;20084;-74
2024/04/05 01:38:45;;;;;;;1.92;0.90;;;13.20;99.90;;;;;;5049665;28;20044;-74
2024/04/05 01:41:11;;;;;;;2.00;1.10;;;13.20;99.90;;;;;;5066082;28;20040;-74
2024/04/05 01:43:36;;;;;;;2.20;0.80;;;13.20;99.90;;;;;;5049642;28;20179;-74
2024/04/05 01:46:02;;;;;;;0.63;0.52;;;13.20;99.90;;;;;;5049531;28;20294;-74
2024/04/05 01:48:28;;;;;;;3.92;0.90;;;13.20;99.90;;;;;;5067227;28;20029;-75
2024/04/05 01:50:53;;;;;;;1.90;0.95;;;13.20;99.90;;;;;;5032931;28;20029;-74
2024/04/05 01:53:19;;;;;;;2.92;0.88;;;13.10;99.90;;;;;;5049219;28;20100;-75
2024/04/05 01:55:44;;;;;;;4.28;1.40;;;13.10;99.90;;;;;;5066027;28;20029;-75
2024/04/05 01:58:10;;;;;;;4.22;1.10;;;13.20;99.90;;;;;;5049318;28;20401;-75
2024/04/05 02:00:37;;;;;;;5.60;1.30;;;13.10;99.90;;;;;;5066952;28;20297;-75
2024/04/05 02:03:03;;;;;;;6.68;1.23;;;13.20;99.90;;;;;;5049221;28;20024;-74
2024/04/05 02:05:28;;;;;;;9.50;2.13;;;13.10;99.90;;;;;;5065762;28;20029;-75
2024/04/05 02:07:54;;;;;;;11.88;2.40;;;13.10;99.90;;;;;;5065607;28;20056;-74
2024/04/05 02:10:20;;;;;;;15.85;2.70;;;13.10;99.90;;;;;;5065757;28;20028;-74
2024/04/05 02:12:45;;;;;;;12.68;3.05;;;13.10;99.90;;;;;;5066472;28;20182;-75
2024/04/05 02:15:11;;;;;;;14.95;3.70;;;13.00;99.90;;;;;;5048999;28;20108;-75
2024/04/05 02:17:37;;;;;;;18.10;4.05;;;13.00;99.90;;;;;;5049064;28;20031;-75
2024/04/05 02:20:05;;;;;;;26.67;4.28;;;13.00;99.90;;;;;;5048756;28;20279;-75
2024/04/05 02:22:34;;;;;;;14.32;4.05;;;13.00;99.90;;;;;;5048439;28;20096;-75
2024/04/05 02:25:00;;;;;;;14.30;3.83;;;13.00;99.90;;;;;;5048541;28;20033;-75
2024/04/05 02:27:26;;;;;;;25.02;5.43;;;13.00;99.90;;;;;;5065364;28;20286;-75
2024/04/05 02:29:52;;;;;;;25.27;4.80;;;13.00;99.90;;;;;;5065179;28;20029;-75
2024/04/05 02:32:17;;;;;;;27.83;4.97;;;13.00;99.90;;;;;;5065363;28;20056;-75
2024/04/05 02:34:43;;;;;;;21.83;4.07;;;13.00;99.90;;;;;;5065906;28;20142;-75
2024/04/05 02:37:09;;;;;;;29.17;5.38;;;13.00;99.90;;;;;;5048555;28;20041;-75
2024/04/05 02:39:34;;;;;;;27.60;4.85;;;13.00;99.90;;;;;;5065156;28;20040;-75
2024/04/05 02:42:00;;;;;;;20.90;3.80;;;13.00;99.90;;;;;;5065682;28;20025;-75
2024/04/05 02:44:25;;;;;;;15.95;3.78;;;13.00;99.90;;;;;;5048581;28;20051;-75
2024/04/05 02:46:52;;;;;;;15.77;3.25;;;13.00;99.90;;;;;;5032370;28;20025;-75
2024/04/05 02:49:18;;;;;;;18.40;3.13;;;13.00;99.90;;;;;;5064999;28;20131;-75
2024/04/05 02:51:43;;;;;;;17.35;2.92;;;12.90;99.90;;;;;;5065951;28;20092;-75
2024/04/05 02:54:09;;;;;;;13.90;3.42;;;12.90;99.90;;;;;;5065034;28;20033;-75
2024/04/05 02:56:35;;;;;;;20.65;4.10;;;12.90;99.90;;;;;;5066030;28;20035;-75
2024/04/05 02:59:01;;;;;;;13.55;3.03;;;12.90;99.90;;;;;;5064829;28;20035;-74
2024/04/05 03:01:26;;;;;;;13.13;2.75;;;12.90;99.90;;;;;;5064868;28;20052;-75
2024/04/05 03:03:52;;;;;;;14.50;2.97;;;12.90;99.90;;;;;;5065852;28;20271;-75
2024/04/05 03:06:19;;;;;;;7.85;2.35;;;12.90;99.90;;;;;;5065876;28;20262;-75
2024/04/05 03:08:45;;;;;;;13.10;3.33;;;12.90;99.90;;;;;;5048292;28;20048;-75
2024/04/05 03:11:10;;;;;;;15.57;2.80;;;12.90;99.90;;;;;;5065660;28;20040;-75
2024/04/05 03:13:36;;;;;;;10.85;2.33;;;12.90;99.90;;;;;;5065644;28;20025;-75
2024/04/05 03:16:02;;;;;;;22.08;3.33;;;12.90;99.90;;;;;;5064763;28;20037;-75
2024/04/05 03:18:29;;;;;;;14.95;3.42;;;12.80;99.90;;;;;;5064857;28;20067;-75
2024/04/05 03:20:54;;;;;;;18.65;3.35;;;12.80;99.90;;;;;;5065214;28;20062;-75
2024/04/05 03:23:20;;;;;;;15.48;3.10;;;12.80;99.90;;;;;;5065422;28;20275;-75
2024/04/05 03:25:46;;;;;;;25.75;5.03;;;12.80;99.90;;;;;;5048014;28;20049;-75
2024/04/05 03:28:12;;;;;;;24.92;4.88;;;12.80;99.90;;;;;;5065807;28;20032;-75
2024/04/05 03:30:37;;;;;;;24.58;5.63;;;12.80;99.90;;;;;;5065072;28;20194;-75
2024/04/05 03:33:03;;;;;;;34.05;5.43;;;12.70;99.90;;;;;;5064160;28;20019;-75
2024/04/05 03:35:29;;;;;;;28.42;6.10;;;12.70;99.90;;;;;;5047797;28;20048;-75
2024/04/05 03:37:55;;;;;;;41.15;7.50;;;12.70;99.90;;;;;;5047881;28;20040;-75
2024/04/05 03:40:21;;;;;;;46.25;7.75;;;12.70;99.90;;;;;;5047731;28;20104;-75
2024/04/05 03:42:47;;;;;;;37.65;6.70;;;12.70;99.90;;;;;;5064405;28;20028;-75
2024/04/05 03:45:13;;;;;;;30.73;6.63;;;12.70;99.90;;;;;;5031253;28;20302;-75
2024/04/05 03:47:39;;;;;;;22.85;4.63;;;12.80;99.90;;;;;;5031027;28;20033;-75
2024/04/05 03:50:05;;;;;;;40.42;6.95;;;12.70;99.90;;;;;;5064323;28;20017;-75
2024/04/05 03:52:31;;;;;;;46.03;7.50;;;12.80;99.90;;;;;;5064370;28;20025;-75
2024/04/05 03:54:56;;;;;;;42.20;8.52;;;12.80;99.90;;;;;;5064348;28;20043;-75
2024/04/05 03:57:22;;;;;;;49.13;7.93;;;12.80;99.90;;;;;;5047546;28;20029;-75
2024/04/05 03:59:48;;;;;;;30.17;5.90;;;12.90;99.90;;;;;;5064792;28;20190;-75
2024/04/05 04:02:13;;;;;;;37.47;5.70;;;12.90;99.90;;;;;;5047323;28;20033;-74
2024/04/05 04:04:39;;;;;;;44.38;7.70;;;12.90;99.90;;;;;;5064007;28;20025;-74
2024/04/05 04:07:05;;;;;;;26.35;5.22;;;12.90;99.90;;;;;;5047481;28;20021;-75
2024/04/05 04:09:31;;;;;;;44.03;8.93;;;12.90;99.90;;;;;;5065389;28;20279;-75
2024/04/05 04:11:57;;;;;;;23.42;5.45;;;12.90;99.90;;;;;;5047686;28;20302;-75
2024/04/05 04:14:23;;;;;;;42.55;8.05;;;12.90;99.90;;;;;;5047500;28;20025;-75
2024/04/05 04:16:50;;;;;;;37.47;7.10;;;12.90;99.90;;;;;;5047355;28;20108;-74
2024/04/05 04:19:16;;;;;;;35.08;6.53;;;12.90;99.90;;;;;;5047507;28;20035;-75
2024/04/05 04:21:42;;;;;;;38.88;6.70;;;12.90;99.90;;;;;;5030623;28;20217;-74
2024/04/05 04:24:08;;;;;;;35.47;5.60;;;12.90;99.90;;;;;;5047510;28;20035;-74
2024/04/05 04:26:34;;;;;;;44.08;6.35;;;12.90;99.90;;;;;;5047539;28;20152;-74
2024/04/05 04:29:00;;;;;;;46.22;6.90;;;12.90;99.90;;;;;;5047290;28;20287;-74
2024/04/05 04:31:27;;;;;;;39.05;6.13;;;12.90;99.90;;;;;;5063823;28;20086;-74
2024/04/05 04:33:53;;;;;;;35.90;6.30;;;12.80;99.90;;;;;;5047422;28;20175;-74
2024/04/05 04:36:22;;;;;;;27.58;5.97;;;12.80;99.90;;;;;;5030724;28;20033;-73
2024/04/05 04:38:48;;;;;;;26.90;5.97;;;12.80;99.90;;;;;;5030665;28;20380;-74
2024/04/05 04:41:14;;;;;;;38.35;5.72;;;12.80;99.90;;;;;;5030658;28;20466;-74
2024/04/05 04:43:40;;;;;;;37.45;5.32;;;12.70;99.90;;;;;;5063763;28;20088;-74
2024/04/05 04:46:06;;;;;;;33.08;6.25;;;12.70;99.90;;;;;;5050062;28;20025;-74
2024/04/05 04:48:32;;;;;;;22.77;4.63;;;12.70;99.90;;;;;;5067242;28;20352;-74
2024/04/05 04:50:57;;;;;;;30.33;5.97;;;12.70;99.90;;;;;;5050583;28;20036;-74
2024/04/05 04:53:23;;;;;;;24.80;5.50;;;12.60;99.90;;;;;;5050388;28;20029;-74
2024/04/05 04:55:48;;;;;;;32.00;5.72;;;12.60;99.90;;;;;;5067278;28;20183;-74
2024/04/05 04:58:18;;;;;;;22.20;5.22;;;12.60;99.90;;;;;;5050595;28;20302;-74
2024/04/05 05:00:46;;;;;;;33.23;5.33;;;12.50;99.90;;;;;;5066820;28;20051;-77
2024/04/05 05:03:12;;;;;;;25.13;5.05;;;12.50;99.90;;;;;;5050451;28;20029;-74
2024/04/05 05:05:39;;;;;;;37.00;5.28;;;12.40;99.90;;;;;;5066964;28;20130;-74
2024/04/05 05:08:04;;;;;;;42.35;6.03;;;12.40;99.90;;;;;;5050417;28;20083;-74
2024/04/05 05:10:30;;;;;;;33.10;5.53;;;12.40;99.90;;;;;;5050311;28;20032;-74
2024/04/05 05:12:56;;;;;;;26.92;4.88;;;12.30;99.90;;;;;;5067586;28;20024;-75
2024/04/05 05:15:22;;;;;;;47.75;8.55;;;12.30;99.90;;;;;;5066544;28;20021;-74
2024/04/05 05:17:48;;;;;;;31.35;6.82;;;12.30;99.90;;;;;;5066310;28;20025;-73
2024/04/05 05:20:16;;;;;;;28.92;5.72;;;12.30;99.90;;;;;;5049761;28;20120;-74
2024/04/05 05:22:43;;;;;;;36.97;5.93;;;12.30;99.90;;;;;;5050076;28;20040;-76
2024/04/05 05:25:08;;;;;;;37.45;6.03;;;12.40;99.90;;;;;;5066338;28;20056;-77
2024/04/05 05:27:34;;;;;;;40.08;6.55;;;12.40;99.90;;;;;;5066461;28;20337;-74
2024/04/05 05:30:00;;;;;;;31.45;5.78;;;12.40;99.90;;;;;;5067448;28;20021;-74
2024/04/05 05:32:25;;;;;;;32.17;5.65;;;12.40;99.90;;;;;;5067510;28;20079;-74
2024/04/05 05:34:51;;;;;;;40.25;6.88;;;12.40;99.90;;;;;;5066965;28;20083;-74
2024/04/05 05:37:17;;;;;;;28.88;5.50;;;12.50;99.90;;;;;;5067107;28;20087;-77
2024/04/05 05:39:43;;;;;;;45.65;6.90;;;12.50;99.90;;;;;;5067238;28;20166;-74
2024/04/05 05:42:09;;;;;;;28.77;6.43;;;12.50;99.90;;;;;;5067228;28;20225;-74
2024/04/05 05:44:35;;;;;;;32.70;5.30;;;12.50;99.90;;;;;;5067377;28;20033;-74
2024/04/05 05:47:00;;;;;;;34.55;6.40;;;12.50;99.90;;;;;;5049249;28;20024;-74
2024/04/05 05:49:26;;;;;;;32.88;5.88;;;12.50;99.90;;;;;;5040039;23;20180;-47
2024/04/05 05:51:52;;;;;;;40.00;6.68;;;12.50;99.90;;;;;;5003080;28;20026;-50
2024/04/05 05:54:19;;;;;;;31.92;6.00;;;12.50;99.90;;;;;;4987964;28;20061;-46
2024/04/05 05:56:45;;;;;;;40.10;6.35;;;12.50;99.90;;;;;;4987954;28;20189;-46
2024/04/05 05:59:11;;;;;;;32.85;4.78;;;12.50;99.90;;;;;;4988101;28;20287;-46
2024/04/05 06:01:37;;;;;;;33.17;6.72;;;12.50;99.90;;;;;;4988059;28;20406;-46
2024/04/05 06:04:03;;;;;;;37.50;5.32;;;12.50;99.90;;;;;;4987869;28;20027;-48
2024/04/05 06:06:29;;;;;;;34.55;6.32;;;12.60;99.90;;;;;;4987925;28;20170;-47
2024/04/05 06:08:55;;;;;;;43.75;6.45;;;12.50;99.90;;;;;;4988027;28;20027;-46
2024/04/05 06:11:21;;;;;;;48.03;7.15;;;12.50;99.90;;;;;;4987897;28;20043;-46
2024/04/05 06:13:46;;;;;;;38.60;6.20;;;12.50;99.90;;;;;;4987550;28;20264;-45
2024/04/05 06:16:12;;;;;;;41.80;6.60;;;12.50;99.90;;;;;;4987583;28;20037;-45
2024/04/05 06:18:40;;;;;;;21.95;6.82;;;12.50;99.90;;;;;;4987818;28;20094;-49
2024/04/05 06:21:05;;;;;;;37.90;6.95;;;12.50;99.90;;;;;;5002673;28;20058;-52
2024/04/05 06:23:31;;;;;;;36.78;6.95;;;12.50;99.90;;;;;;5003024;28;20148;-49
2024/04/05 06:25:58;;;;;;;43.50;7.55;;;12.50;99.90;;;;;;4987519;28;20030;-48
2024/04/05 06:28:24;;;;;;;43.90;8.02;;;12.50;99.90;;;;;;4987367;28;20042;-46
2024/04/05 06:30:49;;;;;;;34.42;5.75;;;12.50;99.90;;;;;;4987413;28;20275;-46
2024/04/05 06:33:15;;;;;;;29.48;6.35;;;12.50;99.90;;;;;;4986107;28;20049;-48
2024/04/05 06:35:41;;;;;;;40.83;6.35;;;12.50;99.90;;;;;;4987001;28;20030;-48
2024/04/05 06:38:10;;;;;;;38.47;6.05;;;12.50;99.90;;;;;;4987381;28;20031;-69
2024/04/05 06:40:36;;;;;;;32.95;5.75;;;12.50;99.90;;;;;;4986034;28;20049;-45
2024/04/05 06:43:03;;;;;;;25.73;5.20;;;12.50;99.90;;;;;;4987337;28;20023;-49
2024/04/05 06:45:28;;;;;;;41.97;7.57;;;12.50;99.90;;;;;;5002017;28;20231;-49
2024/04/05 06:47:55;;;;;;;42.00;7.10;;;12.50;99.90;;;;;;5001335;28;20022;-49
2024/04/05 06:50:25;;;;;;;46.08;8.02;;;12.60;99.90;;;;;;4986520;28;20070;-47
2024/04/05 06:52:58;;;;;;;38.85;5.93;;;12.60;99.90;;;;;;5002207;28;20026;-47
2024/04/05 06:55:24;;;;;;;48.80;9.30;;;12.60;99.90;;;;;;4987125;28;20030;-48
2024/04/05 06:57:51;;;;;;;35.65;7.47;;;12.50;99.90;;;;;;4986787;28;20023;-49
2024/04/05 07:00:16;;;;;;;42.42;8.23;;;12.50;99.90;;;;;;4987836;28;20027;-45
2024/04/05 07:02:42;;;;;;;33.70;6.65;;;12.50;99.90;;;;;;4988561;28;20069;-49
2024/04/05 07:05:08;;;;;;;31.98;6.20;;;12.50;99.90;;;;;;5001988;28;20130;-50
2024/04/05 07:07:34;;;;;;;20.98;4.35;;;12.50;99.90;;;;;;4986960;28;20055;-47
2024/04/05 07:10:00;;;;;;;29.58;6.10;;;12.50;99.90;;;;;;4985817;28;20038;-48
2024/04/05 07:12:25;;;;;;;45.20;6.60;;;12.50;99.90;;;;;;4986716;28;20050;-50
2024/04/05 07:14:51;;;;;;;24.48;4.47;;;12.50;99.90;;;;;;4986693;28;20027;-47
2024/04/05 07:17:16;;;;;;;36.47;6.97;;;12.50;99.90;;;;;;4986545;28;20097;-48
2024/04/05 07:19:42;;;;;;;30.13;5.55;;;12.50;99.90;;;;;;4986202;28;20030;-50
2024/04/05 07:22:09;;;;;;;36.90;7.07;;;12.50;99.90;;;;;;4986264;28;20058;-49
2024/04/05 07:24:35;;;;;;;26.80;5.65;;;12.50;99.90;;;;;;4986552;28;20039;-49
2024/04/05 07:27:01;;;;;;;40.63;6.50;;;12.50;99.90;;;;;;4986642;28;20014;-48
2024/04/05 07:29:26;;;;;;;40.08;7.13;;;12.50;99.90;;;;;;4986631;28;20058;-47
2024/04/05 07:31:53;;;;;;;40.63;5.78;;;12.50;99.90;;;;;;4986407;28;20030;-49
2024/04/05 07:34:19;;;;;;;40.55;6.65;;;12.60;99.90;;;;;;4986569;28;20030;-47
2024/04/05 07:36:45;;;;;;;37.67;6.53;;;12.60;99.90;;;;;;4987212;28;20042;-47
2024/04/05 07:39:12;;;;;;;32.78;5.57;;;12.60;99.90;;;;;;5001627;28;20041;-47
2024/04/05 07:41:37;;;;;;;38.50;7.18;;;12.60;99.90;;;;;;4987686;28;20026;-49
2024/04/05 07:44:03;;;;;;;41.28;7.57;;;12.70;99.90;;;;;;4986956;28;20077;-47
2024/04/05 07:46:29;;;;;;;43.05;8.00;;;12.70;99.90;;;;;;4987053;28;20054;-49
2024/04/05 07:48:55;;;;;;;39.35;6.88;;;12.70;99.90;;;;;;4986264;28;20023;-48
2024/04/05 07:51:21;;;;;;;41.88;7.05;;;12.70;99.90;;;;;;4986321;28;20039;-48
2024/04/05 07:53:47;;;;;;;40.13;7.40;;;12.70;99.90;;;;;;4986201;28;20043;-51
2024/04/05 07:56:13;;;;;;;44.00;6.40;;;12.80;99.90;;;;;;4986219;28;20105;-49
2024/04/05 07:58:39;;;;;;;39.38;6.68;;;12.80;99.90;;;;;;4986041;28;20081;-48
2024/04/05 08:01:07;;;;;;;38.45;6.25;;;12.70;99.90;;;;;;4986349;28;20047;-46
2024/04/05 08:03:33;;;;;;;36.13;6.80;;;12.70;99.90;;;;;;4986340;28;20026;-50
2024/04/05 08:06:00;;;;;;;38.58;7.05;;;12.70;99.90;;;;;;5001336;28;20307;-49
2024/04/05 08:08:26;;;;;;;37.75;6.82;;;12.70;99.90;;;;;;4985994;28;20179;-49
2024/04/05 08:11:01;;;;;;;37.42;6.50;;;12.70;99.90;;;;;;4985684;28;20034;-51
2024/04/05 08:13:28;;;;;;;28.45;5.30;;;12.70;99.90;;;;;;4986380;28;20026;-50
2024/04/05 08:15:54;;;;;;;37.58;6.22;;;12.70;99.90;;;;;;5001391;28;20138;-50
2024/04/05 08:18:19;;;;;;;42.58;6.13;;;12.70;99.90;;;;;;4986074;28;20038;-52
2024/04/05 08:20:45;;;;;;;32.05;5.45;;;12.80;99.90;;;;;;4988687;28;20093;-51
2024/04/05 08:23:11;;;;;;;37.00;6.13;;;12.80;99.90;;;;;;5006653;28;20019;-48
2024/04/05 08:25:36;;;;;;;42.17;6.78;;;12.90;99.90;;;;;;4990154;28;20062;-51
2024/04/05 08:28:02;;;;;;;34.15;5.90;;;12.90;99.90;;;;;;4989683;28;20294;-52
2024/04/05 08:30:28;;;;;;;44.80;7.65;;;12.90;99.90;;;;;;5005542;28;20090;-50
2024/04/05 08:32:54;;;;;;;39.20;6.45;;;12.90;99.90;;;;;;4989725;28;20042;-49
2024/04/05 08:35:19;;;;;;;33.53;5.60;;;13.00;99.90;;;;;;4989648;28;20196;-48
2024/04/05 08:37:45;;;;;;;52.35;8.10;;;13.00;99.90;;;;;;4989061;28;20027;-46
2024/04/05 08:40:11;;;;;;;32.72;6.22;;;13.00;99.90;;;;;;4989249;28;20292;-47
2024/04/05 08:42:37;;;;;;;42.22;8.10;;;13.00;99.90;;;;;;5004149;28;20057;-46
2024/04/05 08:45:03;;;;;;;48.63;6.80;;;13.00;99.90;;;;;;4989346;28;20086;-49
2024/04/05 08:47:31;;;;;;;37.33;7.57;;;13.10;99.90;;;;;;4988904;28;20023;-50
2024/04/05 08:49:57;;;;;;;35.92;7.18;;;13.10;99.90;;;;;;4988944;28;20350;-50
2024/04/05 08:52:22;;;;;;;28.27;4.95;;;13.10;99.90;;;;;;4988698;28;20035;-49
2024/04/05 08:54:48;;;;;;;35.22;5.82;;;13.10;99.90;;;;;;4988754;28;20085;-49
2024/04/05 08:57:15;;;;;;;35.65;6.68;;;13.10;99.90;;;;;;4988272;28;20180;-50
2024/04/05 08:59:44;;;;;;;30.50;5.63;;;13.20;99.90;;;;;;5003756;28;20028;-50
2024/04/05 09:02:09;;;;;;;31.37;5.40;;;13.20;99.90;;;;;;5003875;28;20057;-50
2024/04/05 09:04:36;;;;;;;46.22;7.32;;;13.20;99.90;;;;;;4988494;28;20276;-50
2024/04/05 09:07:02;;;;;;;27.20;5.15;;;13.20;99.90;;;;;;4988833;28;20090;-51
2024/04/05 09:09:29;;;;;;;23.40;5.15;;;13.20;99.90;;;;;;5003808;28;20345;-51
2024/04/05 09:12:07;;;;;;;26.65;4.97;;;13.20;99.90;;;;;;5003732;28;20029;-49
2024/04/05 09:14:36;;;;;;;32.85;4.75;;;13.10;99.90;;;;;;4988163;28;20054;-48
2024/04/05 09:17:03;;;;;;;29.55;4.95;;;13.00;99.90;;;;;;4988373;28;20350;-48
2024/04/05 09:19:30;;;;;;;19.40;4.30;;;12.90;99.90;;;;;;4988460;28;20054;-50
2024/04/05 09:21:56;;;;;;;29.67;5.57;;;12.90;99.90;;;;;;4988221;28;20030;-50
2024/04/05 09:24:22;;;;;;;24.65;5.55;;;12.90;99.90;;;;;;4988397;28;20022;-50
2024/04/05 09:26:58;;;;;;;26.60;4.90;;;13.50;99.90;;;;;;4988333;28;20035;-48
2024/04/05 09:29:23;;;;;;;19.95;4.57;;;13.80;99.90;;;;;;4988053;28;20031;-50
2024/04/05 09:31:49;;;;;;;32.05;6.15;;;13.90;99.90;;;;;;4987480;28;20038;-47
2024/04/05 09:34:16;;;;;;;24.90;6.07;;;14.20;99.90;;;;;;4988092;28;20058;-48
2024/04/05 09:36:42;;;;;;;28.23;5.30;;;14.10;99.90;;;;;;5003419;28;20030;-48
2024/04/05 09:39:13;;;;;;;33.80;6.65;;;14.20;99.90;;;;;;4988462;28;20026;-48
2024/04/05 09:41:39;;;;;;;39.30;7.38;;;14.30;99.90;;;;;;4987681;28;20027;-48
2024/04/05 09:44:06;;;;;;;38.38;6.75;;;14.90;99.90;;;;;;5003148;28;20130;-51
2024/04/05 09:46:32;;;;;;;31.67;6.03;;;14.90;99.90;;;;;;4987476;28;20033;-50
2024/04/05 09:49:01;;;;;;;27.65;5.80;;;15.50;99.90;;;;;;4987576;28;20065;-48
2024/04/05 09:51:44;;;;;;;29.45;6.07;;;15.90;99.90;;;;;;4987878;28;20038;-48
2024/04/05 09:54:13;;;;;;;26.42;5.78;;;15.60;99.90;;;;;;4987869;28;20038;-51
2024/04/05 09:56:40;;;;;;;32.10;6.32;;;15.80;99.90;;;;;;4987785;28;20030;-51
2024/04/05 09:59:20;;;;;;;27.25;5.32;;;16.10;99.90;;;;;;4987962;28;20160;-51
2024/04/05 10:01:46;;;;;;;30.92;6.72;;;15.70;99.90;;;;;;5002695;28;20031;-50
2024/04/05 10:04:12;;;;;;;29.90;8.18;;;15.90;99.90;;;;;;5003125;28;20031;-51
2024/04/05 10:06:38;;;;;;;34.97;8.05;;;15.50;99.90;;;;;;5002787;28;20015;-52
2024/04/05 10:09:34;;;;;;;41.58;9.45;;;15.10;99.90;;;;;;4987491;28;20047;-52
2024/04/05 10:12:13;;;;;;;38.75;11.05;;;15.30;99.90;;;;;;4995075;28;20046;-47
2024/04/05 10:14:39;;;;;;;24.17;7.28;;;15.30;99.90;;;;;;4987354;28;20042;-46
2024/04/05 10:17:08;;;;;;;25.20;7.68;;;15.70;99.90;;;;;;4987165;28;20090;-47
2024/04/05 10:19:38;;;;;;;40.30;9.23;;;16.20;99.90;;;;;;4987303;28;20057;-50
2024/04/05 10:22:10;;;;;;;21.17;5.50;;;16.50;99.90;;;;;;4987124;28;20099;-47
2024/04/05 10:24:36;;;;;;;37.78;8.90;;;15.70;99.90;;;;;;5001880;28;20026;-51
2024/04/05 10:27:02;;;;;;;36.00;6.90;;;16.30;99.90;;;;;;4987170;28;20180;-49
2024/04/05 10:29:28;;;;;;;34.20;6.78;;;17.10;99.90;;;;;;4987337;28;20158;-49
2024/04/05 10:32:20;;;;;;;28.63;7.07;;;17.40;99.90;;;;;;5002233;28;20042;-50
2024/04/05 10:34:46;;;;;;;23.20;5.68;;;16.60;99.90;;;;;;5001172;28;20050;-51
2024/04/05 10:37:14;;;;;;;33.00;6.72;;;15.70;99.90;;;;;;4987148;28;20089;-50
2024/04/05 10:39:43;;;;;;;31.35;6.03;;;15.30;99.90;;;;;;4986551;28;20031;-47
2024/04/05 10:42:09;;;;;;;20.65;4.72;;;15.20;99.90;;;;;;4985858;28;20046;-51
2024/04/05 10:44:35;;;;;;;38.83;8.25;;;15.30;99.90;;;;;;4986534;28;20019;-52
2024/04/05 10:47:00;;;;;;;21.30;4.75;;;15.40;99.90;;;;;;4986417;28;20060;-51
2024/04/05 10:49:26;;;;;;;25.77;5.75;;;15.80;99.90;;;;;;4986390;28;20054;-51
2024/04/05 10:52:02;;;;;;;20.98;5.15;;;16.00;99.90;;;;;;4986285;28;20034;-50
2024/04/05 10:54:28;;;;;;;32.08;6.40;;;15.40;99.90;;;;;;4986782;28;20069;-51
2024/04/05 10:56:53;;;;;;;32.40;5.65;;;15.30;99.90;;;;;;4986683;28;20031;-51
2024/04/05 10:59:19;;;;;;;37.83;6.45;;;15.10;99.90;;;;;;5001685;28;20062;-53
2024/04/05 11:01:47;;;;;;;42.40;6.90;;;14.90;99.90;;;;;;4986061;28;20034;-48
2024/04/05 11:04:13;;;;;;;31.92;6.97;;;15.00;99.90;;;;;;5001676;28;20034;-47
2024/04/05 11:06:39;;;;;;;39.25;6.82;;;14.80;99.90;;;;;;5001333;28;20026;-50
2024/04/05 11:09:06;;;;;;;37.80;6.20;;;14.70;99.90;;;;;;4986013;28;20161;-50
2024/04/05 11:11:32;;;;;;;45.25;9.20;;;14.50;99.90;;;;;;5001465;28;20050;-49
2024/04/05 11:14:05;;;;;;;38.55;7.63;;;14.50;99.90;;;;;;4986009;28;20027;-48
2024/04/05 11:16:35;;;;;;;46.05;9.35;;;14.50;99.90;;;;;;4985148;28;20097;-50
2024/04/05 11:19:00;;;;;;;;;;;14.40;99.90;;;;;;5002011;28;20168;-51
2024/04/05 11:21:26;;;;;;;22.38;5.88;;;14.50;99.90;;;;;;5001040;28;19914;-51
2024/04/05 11:23:54;;;;;;;50.83;8.45;;;14.30;99.90;;;;;;4985884;28;20106;-50
2024/04/05 11:26:30;;;;;;;47.03;8.90;;;14.50;99.90;;;;;;4985636;28;20061;-50
2024/04/05 11:29:02;;;;;;;28.17;7.03;;;14.40;99.90;;;;;;4986122;28;20247;-47
2024/04/05 11:31:29;;;;;;;34.83;7.07;;;14.10;99.90;;;;;;4986187;28;20027;-51
2024/04/05 11:33:57;;;;;;;30.42;7.13;;;14.10;99.90;;;;;;4985935;28;20026;-47
2024/04/05 11:36:26;;;;;;;24.50;5.50;;;14.00;99.90;;;;;;4985796;28;20191;-49
2024/04/05 11:38:51;;;;;;;16.35;4.35;;;13.90;99.90;;;;;;5000621;28;20034;-48
2024/04/05 11:41:18;;;;;;;23.27;5.60;;;13.90;99.90;;;;;;4985891;28;20191;-47
2024/04/05 11:43:44;;;;;;;45.28;7.53;;;13.90;99.90;;;;;;5001078;28;20023;-47
2024/04/05 11:46:09;;;;;;;42.85;8.63;;;13.90;99.90;;;;;;4985504;28;20144;-49
2024/04/05 11:48:35;;;;;;;30.90;6.03;;;14.00;99.90;;;;;;4985624;28;20034;-48
2024/04/05 11:51:01;;;;;;;49.60;7.95;;;13.90;99.90;;;;;;5001110;28;20055;-50
2024/04/05 11:53:27;;;;;;;38.90;6.57;;;14.00;99.90;;;;;;5001146;28;20062;-50
2024/04/05 11:55:56;;;;;;;40.50;7.15;;;14.00;99.90;;;;;;4989862;28;20042;-49
2024/04/05 11:58:23;;;;;;;40.08;7.25;;;14.20;99.90;;;;;;4989962;28;20027;-48
2024/04/05 12:00:50;;;;;;;38.65;6.35;;;14.40;99.90;;;;;;5004590;28;20341;-50
2024/04/05 12:03:16;;;;;;;33.28;6.43;;;14.60;99.90;;;;;;4990100;28;20033;-47
2024/04/05 12:05:43;;;;;;;31.05;6.13;;;14.40;99.90;;;;;;4989528;28;20235;-49
2024/04/05 12:08:09;;;;;;;39.30;5.70;;;14.30;99.90;;;;;;4989148;28;20039;-49
2024/04/05 12:10:35;;;;;;;29.60;6.53;;;14.20;99.90;;;;;;4988776;28;20034;-51
2024/04/05 12:13:00;;;;;;;28.50;6.22;;;14.20;99.90;;;;;;4989413;28;20077;-50
2024/04/05 12:15:26;;;;;;;20.08;4.90;;;14.10;99.90;;;;;;5004432;28;20244;-50
2024/04/05 12:17:52;;;;;;;26.52;5.20;;;14.10;99.90;;;;;;4989221;28;20018;-51
2024/04/05 12:20:18;;;;;;;38.20;8.57;;;14.20;99.90;;;;;;4989219;28;20030;-48
2024/04/05 12:22:44;;;;;;;69.53;18.70;;;14.10;99.90;;;;;;5004248;28;20056;-48
2024/04/05 12:25:10;;;;;;;66.40;21.17;;;14.10;99.90;;;;;;4988996;28;20101;-51
2024/04/05 12:27:36;;;;;;;58.13;17.80;;;14.20;99.90;;;;;;4988693;28;20023;-50
2024/04/05 12:30:03;;;;;;;36.88;9.57;;;14.30;99.90;;;;;;4989102;28;20172;-49
2024/04/05 12:32:29;;;;;;;70.35;29.00;;;14.40;99.90;;;;;;4989141;28;20098;-50
2024/04/05 12:34:56;;;;;;;35.83;8.07;;;14.40;99.90;;;;;;5004755;28;20023;-51